createdAt,value
2018-06-18T00:00:19.308Z,0.00
2018-06-18T00:02:19.477Z,0.00
2018-06-18T00:03:19.205Z,0.00
2018-06-18T00:04:19.093Z,0.00
2018-06-18T00:05:19.388Z,0.00
2018-06-18T00:06:19.168Z,0.00
2018-06-18T00:07:19.147Z,0.00
2018-06-18T00:08:19.383Z,0.00
2018-06-18T00:09:19.020Z,0.00
2018-06-18T00:11:18.988Z,0.00
2018-06-18T00:12:18.974Z,0.00
2018-06-18T00:13:18.969Z,0.00
2018-06-18T00:14:19.304Z,0.00
2018-06-18T00:15:19.006Z,0.00
2018-06-18T00:18:18.909Z,0.00
2018-06-18T00:19:18.875Z,0.00
2018-06-18T00:20:19.210Z,0.00
2018-06-18T00:21:18.921Z,0.00
2018-06-18T00:22:18.909Z,0.00
2018-06-18T00:23:18.820Z,0.00
2018-06-18T00:24:18.805Z,0.00
2018-06-18T00:25:18.793Z,0.00
2018-06-18T00:26:19.126Z,0.00
2018-06-18T00:27:18.840Z,0.00
2018-06-18T00:28:18.745Z,0.00
2018-06-18T00:29:18.731Z,0.00
2018-06-18T00:30:18.726Z,0.00
2018-06-18T00:31:18.704Z,0.00
2018-06-18T00:34:18.662Z,0.00
2018-06-18T00:35:18.650Z,0.00
2018-06-18T00:36:18.637Z,0.00
2018-06-18T00:37:18.632Z,0.00
2018-06-18T00:38:18.958Z,0.00
2018-06-18T00:39:18.663Z,0.00
2018-06-18T00:40:18.577Z,0.00
2018-06-18T00:41:18.617Z,0.00
2018-06-18T00:42:18.856Z,0.00
2018-06-18T00:44:18.571Z,0.00
2018-06-18T00:45:18.973Z,0.00
2018-06-18T00:46:18.495Z,0.00
2018-06-18T00:47:18.475Z,0.00
2018-06-18T00:48:18.468Z,0.00
2018-06-18T00:49:18.458Z,0.00
2018-06-18T00:50:18.484Z,0.00
2018-06-18T00:51:18.416Z,0.00
2018-06-18T00:52:18.793Z,0.00
2018-06-18T00:53:18.493Z,0.00
2018-06-18T00:54:18.380Z,0.00
2018-06-18T00:55:18.367Z,0.00
2018-06-18T00:56:18.399Z,0.00
2018-06-18T00:57:18.334Z,0.00
2018-06-18T00:58:18.424Z,0.00
2018-06-18T00:59:18.605Z,0.00
2018-06-18T01:00:18.298Z,0.00
2018-06-18T01:01:18.276Z,0.00
2018-06-18T01:02:18.317Z,0.00
2018-06-18T01:04:18.343Z,0.00
2018-06-18T01:05:18.344Z,0.00
2018-06-18T01:06:18.507Z,0.00
2018-06-18T01:07:18.203Z,0.00
2018-06-18T01:08:18.230Z,0.00
2018-06-18T01:09:18.173Z,0.00
2018-06-18T01:10:18.148Z,0.00
2018-06-18T01:11:18.141Z,0.00
2018-06-18T01:12:18.229Z,0.00
2018-06-18T01:13:18.489Z,0.00
2018-06-18T01:14:18.448Z,0.00
2018-06-18T01:15:18.162Z,0.00
2018-06-18T01:16:18.236Z,0.00
2018-06-18T01:17:18.041Z,0.00
2018-06-18T01:19:18.318Z,0.00
2018-06-18T01:21:18.144Z,0.00
2018-06-18T01:22:17.985Z,0.00
2018-06-18T01:24:18.022Z,0.00
2018-06-18T01:26:18.219Z,0.00
2018-06-18T01:27:17.958Z,0.00
2018-06-18T01:28:17.893Z,0.00
2018-06-18T01:29:17.879Z,0.00
2018-06-18T01:30:17.868Z,0.00
2018-06-18T01:31:17.847Z,0.00
2018-06-18T01:32:18.133Z,0.00
2018-06-18T01:33:17.865Z,0.00
2018-06-18T01:34:17.905Z,0.00
2018-06-18T01:35:17.788Z,0.00
2018-06-18T01:36:17.770Z,0.00
2018-06-18T01:37:17.754Z,0.00
2018-06-18T01:39:17.777Z,0.00
2018-06-18T01:40:17.710Z,0.00
2018-06-18T01:41:17.701Z,0.00
2018-06-18T01:42:17.684Z,0.00
2018-06-18T01:43:17.670Z,0.00
2018-06-18T01:44:17.960Z,0.00
2018-06-18T01:45:17.686Z,0.00
2018-06-18T01:46:17.620Z,0.00
2018-06-18T01:47:17.607Z,0.00
2018-06-18T01:48:17.598Z,0.00
2018-06-18T01:49:17.589Z,0.00
2018-06-18T01:50:17.937Z,0.00
2018-06-18T01:51:17.598Z,0.00
2018-06-18T01:52:17.536Z,0.00
2018-06-18T01:53:17.523Z,0.00
2018-06-18T01:54:17.507Z,0.00
2018-06-18T01:55:17.491Z,0.00
2018-06-18T01:56:17.772Z,0.00
2018-06-18T01:57:17.514Z,0.00
2018-06-18T01:58:17.441Z,0.00
2018-06-18T01:59:17.428Z,0.00
2018-06-18T02:00:17.417Z,0.00
2018-06-18T02:01:17.396Z,0.00
2018-06-18T02:02:17.756Z,0.00
2018-06-18T02:03:17.426Z,0.00
2018-06-18T02:05:17.338Z,0.00
2018-06-18T02:06:17.326Z,0.00
2018-06-18T02:07:17.306Z,0.00
2018-06-18T02:09:17.413Z,0.00
2018-06-18T02:10:17.352Z,0.00
2018-06-18T02:11:17.247Z,0.00
2018-06-18T02:12:17.305Z,0.00
2018-06-18T02:13:17.292Z,0.00
2018-06-18T02:14:17.197Z,0.00
2018-06-18T02:15:17.683Z,0.00
2018-06-18T02:16:17.213Z,0.00
2018-06-18T02:18:17.185Z,0.00
2018-06-18T02:19:17.123Z,0.00
2018-06-18T02:20:17.188Z,0.00
2018-06-18T02:21:17.217Z,0.00
2018-06-18T02:23:17.417Z,0.00
2018-06-18T02:24:17.046Z,0.00
2018-06-18T02:25:17.042Z,0.00
2018-06-18T02:26:17.033Z,0.00
2018-06-18T02:27:17.060Z,0.00
2018-06-18T02:28:17.062Z,0.00
2018-06-18T02:29:17.671Z,0.00
2018-06-18T02:30:17.331Z,0.00
2018-06-18T02:31:16.934Z,0.00
2018-06-18T02:32:16.921Z,0.00
2018-06-18T02:33:16.955Z,0.00
2018-06-18T02:34:16.891Z,0.00
2018-06-18T02:36:17.159Z,0.00
2018-06-18T02:37:16.849Z,0.00
2018-06-18T02:39:16.864Z,0.00
2018-06-18T02:40:16.799Z,0.00
2018-06-18T02:41:16.783Z,0.00
2018-06-18T02:42:16.770Z,0.00
2018-06-18T02:43:17.053Z,0.00
2018-06-18T02:44:16.739Z,0.00
2018-06-18T02:45:16.802Z,0.00
2018-06-18T02:46:16.810Z,0.00
2018-06-18T02:47:16.689Z,0.00
2018-06-18T02:48:16.677Z,0.00
2018-06-18T02:49:16.663Z,0.00
2018-06-18T02:50:16.946Z,0.00
2018-06-18T02:51:16.676Z,0.00
2018-06-18T02:52:16.709Z,0.00
2018-06-18T02:53:16.672Z,0.00
2018-06-18T02:54:16.575Z,0.00
2018-06-18T02:55:16.642Z,0.00
2018-06-18T02:56:16.561Z,0.00
2018-06-18T02:57:16.879Z,0.00
2018-06-18T02:58:16.584Z,0.00
2018-06-18T02:59:16.496Z,0.00
2018-06-18T03:00:16.474Z,0.00
2018-06-18T03:01:16.473Z,0.00
2018-06-18T03:02:16.453Z,0.00
2018-06-18T03:03:16.788Z,5.63
2018-06-18T03:04:16.426Z,5.63
2018-06-18T03:05:16.408Z,5.63
2018-06-18T03:06:16.393Z,5.63
2018-06-18T03:07:16.426Z,5.63
2018-06-18T03:08:16.469Z,5.63
2018-06-18T03:09:16.692Z,5.63
2018-06-18T03:10:16.320Z,5.63
2018-06-18T03:11:16.402Z,5.63
2018-06-18T03:12:16.285Z,5.63
2018-06-18T03:13:16.276Z,5.63
2018-06-18T03:14:16.260Z,5.63
2018-06-18T03:15:16.626Z,5.63
2018-06-18T03:16:16.412Z,5.63
2018-06-18T03:17:16.225Z,5.63
2018-06-18T03:18:16.200Z,5.63
2018-06-18T03:19:16.268Z,11.25
2018-06-18T03:21:16.500Z,11.25
2018-06-18T03:22:16.242Z,11.25
2018-06-18T03:24:16.102Z,11.25
2018-06-18T03:25:16.098Z,11.25
2018-06-18T03:26:16.076Z,11.25
2018-06-18T03:27:16.447Z,11.25
2018-06-18T03:28:16.051Z,11.25
2018-06-18T03:29:16.123Z,11.25
2018-06-18T03:30:16.093Z,11.25
2018-06-18T03:31:16.069Z,11.25
2018-06-18T03:32:15.989Z,11.25
2018-06-18T03:33:16.325Z,11.25
2018-06-18T03:34:15.957Z,11.25
2018-06-18T03:36:15.921Z,11.25
2018-06-18T03:37:15.930Z,16.88
2018-06-18T03:38:15.890Z,16.88
2018-06-18T03:39:16.239Z,16.88
2018-06-18T03:40:15.870Z,16.88
2018-06-18T03:41:15.927Z,16.88
2018-06-18T03:43:15.818Z,22.50
2018-06-18T03:44:15.808Z,22.50
2018-06-18T03:45:15.832Z,22.50
2018-06-18T03:46:16.072Z,22.50
2018-06-18T03:47:15.755Z,22.50
2018-06-18T03:48:15.746Z,22.50
2018-06-18T03:49:15.735Z,28.13
2018-06-18T03:50:15.811Z,28.13
2018-06-18T03:51:15.780Z,28.13
2018-06-18T03:52:15.764Z,28.13
2018-06-18T03:53:16.040Z,28.13
2018-06-18T03:55:15.628Z,28.13
2018-06-18T03:56:15.671Z,33.75
2018-06-18T03:57:15.676Z,33.75
2018-06-18T03:58:15.586Z,33.75
2018-06-18T03:59:15.876Z,33.75
2018-06-18T04:00:15.860Z,33.75
2018-06-18T04:01:15.547Z,33.75
2018-06-18T04:02:15.613Z,33.75
2018-06-18T04:04:15.576Z,33.75
2018-06-18T04:05:15.577Z,33.75
2018-06-18T04:06:15.547Z,33.75
2018-06-18T04:07:15.826Z,28.13
2018-06-18T04:08:15.444Z,28.13
2018-06-18T04:09:15.500Z,28.13
2018-06-18T04:10:15.462Z,33.75
2018-06-18T04:11:15.469Z,33.75
2018-06-18T04:12:15.428Z,33.75
2018-06-18T04:13:15.370Z,33.75
2018-06-18T04:14:15.653Z,33.75
2018-06-18T04:15:15.338Z,33.75
2018-06-18T04:16:15.373Z,33.75
2018-06-18T04:17:15.355Z,33.75
2018-06-18T04:18:15.292Z,33.75
2018-06-18T04:19:15.276Z,33.75
2018-06-18T04:21:15.646Z,39.38
2018-06-18T04:22:15.285Z,39.38
2018-06-18T04:23:15.330Z,39.38
2018-06-18T04:24:15.279Z,39.38
2018-06-18T04:25:15.190Z,45.00
2018-06-18T04:26:15.247Z,45.00
2018-06-18T04:27:15.161Z,45.00
2018-06-18T04:29:15.508Z,50.63
2018-06-18T04:30:15.113Z,50.63
2018-06-18T04:31:15.167Z,50.63
2018-06-18T04:32:15.452Z,50.63
2018-06-18T04:33:15.135Z,50.63
2018-06-18T04:34:15.192Z,50.63
2018-06-18T04:35:17.193Z,50.63
2018-06-18T04:36:15.023Z,50.63
2018-06-18T04:37:15.011Z,50.63
2018-06-18T04:38:14.996Z,50.63
2018-06-18T04:39:15.081Z,50.63
2018-06-18T04:40:14.965Z,56.25
2018-06-18T04:41:15.313Z,56.25
2018-06-18T04:42:15.017Z,56.25
2018-06-18T04:43:15.005Z,56.25
2018-06-18T04:44:15.032Z,56.25
2018-06-18T04:45:15.039Z,56.25
2018-06-18T04:46:14.965Z,56.25
2018-06-18T04:47:15.231Z,61.88
2018-06-18T04:48:14.846Z,61.88
2018-06-18T04:49:14.939Z,67.50
2018-06-18T04:50:14.817Z,67.50
2018-06-18T04:51:14.847Z,73.13
2018-06-18T04:52:14.879Z,73.13
2018-06-18T04:53:15.176Z,73.13
2018-06-18T04:54:14.762Z,78.75
2018-06-18T04:55:14.748Z,78.75
2018-06-18T04:56:14.732Z,78.75
2018-06-18T04:57:14.725Z,84.38
2018-06-18T04:59:15.733Z,84.38
2018-06-18T05:00:14.853Z,84.38
2018-06-18T05:01:14.919Z,90.00
2018-06-18T05:02:14.715Z,90.00
2018-06-18T05:03:14.867Z,95.63
2018-06-18T05:04:14.691Z,95.63
2018-06-18T05:05:14.993Z,95.63
2018-06-18T05:06:14.666Z,95.63
2018-06-18T05:07:14.653Z,95.63
2018-06-18T05:08:14.954Z,95.63
2018-06-18T05:09:14.610Z,101.25
2018-06-18T05:10:14.575Z,101.25
2018-06-18T05:11:14.890Z,106.88
2018-06-18T05:12:14.497Z,106.88
2018-06-18T05:13:14.485Z,106.88
2018-06-18T05:14:14.478Z,106.88
2018-06-18T05:15:14.460Z,106.88
2018-06-18T05:16:14.579Z,101.25
2018-06-18T05:17:14.488Z,101.25
2018-06-18T05:18:14.835Z,101.25
2018-06-18T05:19:14.403Z,101.25
2018-06-18T05:20:14.389Z,101.25
2018-06-18T05:21:14.389Z,106.88
2018-06-18T05:22:14.367Z,106.88
2018-06-18T05:23:14.395Z,112.50
2018-06-18T05:24:14.410Z,112.50
2018-06-18T05:25:15.045Z,112.50
2018-06-18T05:26:14.392Z,112.50
2018-06-18T05:27:14.389Z,112.50
2018-06-18T05:28:14.284Z,112.50
2018-06-18T05:29:14.313Z,112.50
2018-06-18T05:30:14.275Z,112.50
2018-06-18T05:31:14.235Z,112.50
2018-06-18T05:32:14.527Z,112.50
2018-06-18T05:34:14.197Z,112.50
2018-06-18T05:35:14.235Z,118.13
2018-06-18T05:36:14.294Z,123.75
2018-06-18T05:37:14.347Z,129.38
2018-06-18T05:38:14.569Z,135.00
2018-06-18T05:39:14.464Z,151.88
2018-06-18T05:40:14.174Z,151.88
2018-06-18T05:41:14.296Z,157.50
2018-06-18T05:42:14.478Z,163.13
2018-06-18T05:43:14.073Z,163.13
2018-06-18T05:44:14.064Z,168.75
2018-06-18T05:45:14.057Z,174.38
2018-06-18T05:46:14.333Z,174.38
2018-06-18T05:47:14.077Z,185.63
2018-06-18T05:48:14.019Z,185.63
2018-06-18T05:49:14.003Z,185.63
2018-06-18T05:50:14.007Z,185.63
2018-06-18T05:51:13.969Z,196.88
2018-06-18T05:52:13.955Z,196.88
2018-06-18T05:53:14.542Z,202.50
2018-06-18T05:54:13.932Z,202.50
2018-06-18T05:55:13.925Z,196.88
2018-06-18T05:56:13.912Z,202.50
2018-06-18T05:57:13.890Z,191.25
2018-06-18T05:58:13.894Z,185.63
2018-06-18T05:59:13.917Z,180.00
2018-06-18T06:00:14.159Z,185.63
2018-06-18T06:01:13.864Z,202.50
2018-06-18T06:02:13.827Z,219.38
2018-06-18T06:04:13.830Z,236.25
2018-06-18T06:05:13.854Z,241.88
2018-06-18T06:06:14.079Z,247.50
2018-06-18T06:08:13.861Z,241.88
2018-06-18T06:09:13.831Z,241.88
2018-06-18T06:10:13.733Z,236.25
2018-06-18T06:11:13.805Z,236.25
2018-06-18T06:12:14.089Z,236.25
2018-06-18T06:13:13.769Z,241.88
2018-06-18T06:14:13.761Z,241.88
2018-06-18T06:15:13.745Z,247.50
2018-06-18T06:16:13.752Z,258.75
2018-06-18T06:17:13.694Z,247.50
2018-06-18T06:18:13.930Z,247.50
2018-06-18T06:19:13.616Z,236.25
2018-06-18T06:20:13.612Z,219.38
2018-06-18T06:21:13.601Z,225.00
2018-06-18T06:22:13.591Z,230.63
2018-06-18T06:23:13.658Z,230.63
2018-06-18T06:24:14.363Z,230.63
2018-06-18T06:25:13.803Z,225.00
2018-06-18T06:26:13.694Z,225.00
2018-06-18T06:27:13.604Z,236.25
2018-06-18T06:28:13.904Z,236.25
2018-06-18T06:29:14.007Z,241.88
2018-06-18T06:30:13.900Z,253.13
2018-06-18T06:31:13.557Z,241.88
2018-06-18T06:32:13.546Z,247.50
2018-06-18T06:33:13.559Z,253.13
2018-06-18T06:34:13.453Z,253.13
2018-06-18T06:35:13.486Z,264.38
2018-06-18T06:36:13.793Z,264.38
2018-06-18T06:37:13.538Z,275.63
2018-06-18T06:38:13.389Z,275.63
2018-06-18T06:40:13.369Z,253.13
2018-06-18T06:42:13.644Z,241.88
2018-06-18T06:43:13.332Z,236.25
2018-06-18T06:44:13.429Z,241.88
2018-06-18T06:45:13.492Z,258.75
2018-06-18T06:46:13.408Z,258.75
2018-06-18T06:47:13.304Z,264.38
2018-06-18T06:48:13.338Z,253.13
2018-06-18T06:49:13.566Z,258.75
2018-06-18T06:50:13.250Z,258.75
2018-06-18T06:51:13.254Z,258.75
2018-06-18T06:52:13.248Z,258.75
2018-06-18T06:53:13.241Z,258.75
2018-06-18T06:54:13.258Z,264.38
2018-06-18T06:55:13.194Z,264.38
2018-06-18T06:56:13.498Z,292.50
2018-06-18T06:57:13.171Z,275.63
2018-06-18T06:58:13.162Z,270.00
2018-06-18T06:59:13.157Z,270.00
2018-06-18T07:00:13.266Z,225.00
2018-06-18T07:01:13.284Z,247.50
2018-06-18T07:02:13.119Z,241.88
2018-06-18T07:04:13.090Z,264.38
2018-06-18T07:05:13.130Z,264.38
2018-06-18T07:08:13.102Z,270.00
2018-06-18T07:09:13.037Z,241.88
2018-06-18T07:11:13.323Z,236.25
2018-06-18T07:12:13.090Z,225.00
2018-06-18T07:13:13.025Z,219.38
2018-06-18T07:14:13.035Z,236.25
2018-06-18T07:15:12.977Z,230.63
2018-06-18T07:16:12.983Z,219.38
2018-06-18T07:17:12.949Z,230.63
2018-06-18T07:18:13.237Z,241.88
2018-06-18T07:19:12.925Z,213.75
2018-06-18T07:20:12.965Z,236.25
2018-06-18T07:21:12.904Z,264.38
2018-06-18T07:22:12.898Z,264.38
2018-06-18T07:23:12.886Z,241.88
2018-06-18T07:24:12.889Z,253.13
2018-06-18T07:25:13.168Z,264.38
2018-06-18T07:26:13.048Z,253.13
2018-06-18T07:27:12.844Z,247.50
2018-06-18T07:29:12.813Z,258.75
2018-06-18T07:30:12.838Z,292.50
2018-06-18T07:31:13.112Z,264.38
2018-06-18T07:32:12.834Z,270.00
2018-06-18T07:33:12.779Z,264.38
2018-06-18T07:34:12.772Z,253.13
2018-06-18T07:35:12.829Z,270.00
2018-06-18T07:36:12.829Z,275.63
2018-06-18T07:37:13.110Z,264.38
2018-06-18T07:38:12.779Z,264.38
2018-06-18T07:39:12.720Z,258.75
2018-06-18T07:40:12.724Z,253.13
2018-06-18T07:41:12.683Z,247.50
2018-06-18T07:42:12.676Z,270.00
2018-06-18T07:43:12.961Z,247.50
2018-06-18T07:44:12.706Z,253.13
2018-06-18T07:45:12.642Z,309.38
2018-06-18T07:46:12.632Z,315.00
2018-06-18T07:47:12.619Z,326.25
2018-06-18T07:48:12.638Z,388.13
2018-06-18T07:50:13.051Z,337.50
2018-06-18T07:51:12.576Z,315.00
2018-06-18T07:52:12.626Z,331.88
2018-06-18T07:53:12.569Z,315.00
2018-06-18T07:54:12.543Z,326.25
2018-06-18T07:55:12.533Z,309.38
2018-06-18T07:56:12.876Z,348.75
2018-06-18T07:57:12.517Z,303.75
2018-06-18T07:58:12.511Z,326.25
2018-06-18T07:59:12.494Z,388.13
2018-06-18T08:00:12.491Z,281.25
2018-06-18T08:01:12.492Z,292.50
2018-06-18T08:02:12.815Z,416.25
2018-06-18T08:04:12.442Z,337.50
2018-06-18T08:05:12.459Z,309.38
2018-06-18T08:07:12.422Z,208.13
2018-06-18T08:09:12.770Z,405.00
2018-06-18T08:10:12.462Z,450.00
2018-06-18T08:11:12.460Z,444.38
2018-06-18T08:12:12.365Z,545.63
2018-06-18T08:13:12.373Z,450.00
2018-06-18T08:14:12.453Z,433.13
2018-06-18T08:15:12.690Z,433.13
2018-06-18T08:17:12.320Z,292.50
2018-06-18T08:18:12.308Z,275.63
2018-06-18T08:19:12.321Z,264.38
2018-06-18T08:20:12.298Z,281.25
2018-06-18T08:21:12.803Z,298.13
2018-06-18T08:22:12.382Z,421.88
2018-06-18T08:23:12.344Z,466.88
2018-06-18T08:24:12.261Z,433.13
2018-06-18T08:25:12.245Z,478.13
2018-06-18T08:26:12.244Z,433.13
2018-06-18T08:27:12.280Z,438.75
2018-06-18T08:28:12.523Z,472.50
2018-06-18T08:29:12.233Z,540.00
2018-06-18T08:30:12.311Z,495.00
2018-06-18T08:31:12.256Z,489.38
2018-06-18T08:32:12.191Z,427.50
2018-06-18T08:33:12.219Z,399.38
2018-06-18T08:34:12.160Z,433.13
2018-06-18T08:35:12.469Z,635.63
2018-06-18T08:36:12.159Z,528.75
2018-06-18T08:37:12.137Z,489.38
2018-06-18T08:38:12.124Z,427.50
2018-06-18T08:39:12.164Z,371.25
2018-06-18T08:40:12.113Z,309.38
2018-06-18T08:41:12.403Z,281.25
2018-06-18T08:43:12.163Z,320.63
2018-06-18T08:46:12.183Z,376.88
2018-06-18T08:47:12.122Z,309.38
2018-06-18T08:48:12.422Z,270.00
2018-06-18T08:49:12.108Z,348.75
2018-06-18T08:50:12.117Z,506.25
2018-06-18T08:51:12.102Z,455.63
2018-06-18T08:52:12.123Z,444.38
2018-06-18T08:53:11.996Z,495.00
2018-06-18T08:54:12.286Z,450.00
2018-06-18T08:55:11.997Z,568.13
2018-06-18T08:56:12.166Z,405.00
2018-06-18T08:58:11.992Z,241.88
2018-06-18T08:59:11.937Z,264.38
2018-06-18T09:01:12.627Z,292.50
2018-06-18T09:02:12.136Z,354.38
2018-06-18T09:03:11.961Z,360.00
2018-06-18T09:05:11.975Z,309.38
2018-06-18T09:06:11.981Z,348.75
2018-06-18T09:07:11.960Z,371.25
2018-06-18T09:08:12.149Z,483.75
2018-06-18T09:09:11.849Z,438.75
2018-06-18T09:10:11.926Z,416.25
2018-06-18T09:11:11.933Z,343.13
2018-06-18T09:12:11.868Z,292.50
2018-06-18T09:13:12.121Z,303.75
2018-06-18T09:14:12.155Z,315.00
2018-06-18T09:15:11.789Z,489.38
2018-06-18T09:16:11.861Z,275.63
2018-06-18T09:17:11.825Z,230.63
2018-06-18T09:18:11.764Z,213.75
2018-06-18T09:19:11.837Z,286.88
2018-06-18T09:20:12.119Z,281.25
2018-06-18T09:21:11.758Z,270.00
2018-06-18T09:23:11.772Z,225.00
2018-06-18T09:24:11.707Z,247.50
2018-06-18T09:25:11.715Z,258.75
2018-06-18T09:26:11.992Z,320.63
2018-06-18T09:27:11.802Z,337.50
2018-06-18T09:28:11.876Z,303.75
2018-06-18T09:29:11.736Z,331.88
2018-06-18T09:30:11.653Z,326.25
2018-06-18T09:31:11.639Z,421.88
2018-06-18T09:32:11.672Z,545.63
2018-06-18T09:33:12.009Z,472.50
2018-06-18T09:34:11.697Z,534.38
2018-06-18T09:35:11.650Z,354.38
2018-06-18T09:36:12.874Z,388.13
2018-06-18T09:37:11.578Z,298.13
2018-06-18T09:38:11.650Z,466.88
2018-06-18T09:39:11.950Z,315.00
2018-06-18T09:41:11.589Z,348.75
2018-06-18T09:42:11.531Z,376.88
2018-06-18T09:43:11.548Z,450.00
2018-06-18T09:45:11.882Z,421.88
2018-06-18T09:46:11.494Z,393.75
2018-06-18T09:47:11.534Z,365.63
2018-06-18T09:48:11.569Z,551.25
2018-06-18T09:49:11.467Z,309.38
2018-06-18T09:51:11.857Z,343.13
2018-06-18T09:52:11.548Z,343.13
2018-06-18T09:53:11.477Z,371.25
2018-06-18T09:54:11.431Z,421.88
2018-06-18T09:55:11.501Z,466.88
2018-06-18T09:56:11.411Z,585.00
2018-06-18T09:57:11.393Z,540.00
2018-06-18T09:58:11.784Z,787.50
2018-06-18T09:59:11.505Z,725.63
2018-06-18T10:00:11.637Z,990.00
2018-06-18T10:01:11.473Z,978.75
2018-06-18T10:02:11.463Z,1057.50
2018-06-18T10:03:11.335Z,1068.75
2018-06-18T10:04:11.322Z,1006.88
2018-06-18T10:05:11.695Z,900.00
2018-06-18T10:06:11.408Z,900.00
2018-06-18T10:07:11.376Z,888.75
2018-06-18T10:08:11.431Z,849.38
2018-06-18T10:09:11.376Z,804.38
2018-06-18T10:10:11.288Z,832.50
2018-06-18T10:11:11.639Z,928.13
2018-06-18T10:12:11.255Z,1254.38
2018-06-18T10:13:11.344Z,1096.88
2018-06-18T10:14:11.334Z,1113.75
2018-06-18T10:15:11.320Z,1333.13
2018-06-18T10:16:11.299Z,1293.75
2018-06-18T10:17:11.341Z,1220.63
2018-06-18T10:18:11.585Z,1513.13
2018-06-18T10:19:11.207Z,3650.63
2018-06-18T10:20:11.237Z,2199.38
2018-06-18T10:21:11.175Z,2227.50
2018-06-18T10:22:11.169Z,1310.63
2018-06-18T10:23:11.209Z,1220.63
2018-06-18T10:24:11.178Z,1226.25
2018-06-18T10:25:11.462Z,973.13
2018-06-18T10:26:11.155Z,871.88
2018-06-18T10:27:11.179Z,675.00
2018-06-18T10:28:11.120Z,534.38
2018-06-18T10:29:11.163Z,540.00
2018-06-18T10:30:11.123Z,483.75
2018-06-18T10:31:11.098Z,438.75
2018-06-18T10:33:11.174Z,630.00
2018-06-18T10:34:11.156Z,489.38
2018-06-18T10:35:11.117Z,365.63
2018-06-18T10:36:11.138Z,303.75
2018-06-18T10:37:11.139Z,354.38
2018-06-18T10:38:11.122Z,360.00
2018-06-18T10:39:11.341Z,399.38
2018-06-18T10:40:11.059Z,410.63
2018-06-18T10:41:11.070Z,450.00
2018-06-18T10:42:11.008Z,450.00
2018-06-18T10:43:11.007Z,438.75
2018-06-18T10:44:11.069Z,427.50
2018-06-18T10:46:11.281Z,393.75
2018-06-18T10:47:11.012Z,393.75
2018-06-18T10:48:10.956Z,478.13
2018-06-18T10:49:10.943Z,483.75
2018-06-18T10:50:10.948Z,472.50
2018-06-18T10:51:10.996Z,618.75
2018-06-18T10:52:11.215Z,568.13
2018-06-18T10:53:11.091Z,433.13
2018-06-18T10:54:10.956Z,489.38
2018-06-18T10:55:10.902Z,590.63
2018-06-18T10:56:10.980Z,646.88
2018-06-18T10:57:10.872Z,669.38
2018-06-18T11:00:11.216Z,781.88
2018-06-18T11:02:10.831Z,933.75
2018-06-18T11:03:11.074Z,973.13
2018-06-18T11:04:11.057Z,691.88
2018-06-18T11:06:11.279Z,534.38
2018-06-18T11:07:11.177Z,1080.00
2018-06-18T11:08:10.867Z,995.63
2018-06-18T11:10:10.840Z,703.13
2018-06-18T11:11:10.837Z,646.88
2018-06-18T11:12:11.110Z,669.38
2018-06-18T11:13:10.798Z,945.00
2018-06-18T11:14:10.713Z,883.13
2018-06-18T11:15:10.712Z,1057.50
2018-06-18T11:16:10.864Z,1215.00
2018-06-18T11:17:11.053Z,883.13
2018-06-18T11:18:11.045Z,742.50
2018-06-18T11:20:10.661Z,590.63
2018-06-18T11:22:11.877Z,556.88
2018-06-18T11:23:10.818Z,517.50
2018-06-18T11:24:11.200Z,427.50
2018-06-18T11:25:12.074Z,382.50
2018-06-18T11:27:10.733Z,365.63
2018-06-18T11:28:11.086Z,382.50
2018-06-18T11:29:10.581Z,517.50
2018-06-18T11:30:10.963Z,601.88
2018-06-18T11:31:10.672Z,585.00
2018-06-18T11:32:10.684Z,506.25
2018-06-18T11:33:10.554Z,393.75
2018-06-18T11:34:10.550Z,410.63
2018-06-18T11:35:10.532Z,388.13
2018-06-18T11:36:10.972Z,416.25
2018-06-18T11:37:10.707Z,466.88
2018-06-18T11:38:10.768Z,568.13
2018-06-18T11:39:10.648Z,596.25
2018-06-18T11:40:10.485Z,545.63
2018-06-18T11:41:10.474Z,478.13
2018-06-18T11:42:10.565Z,421.88
2018-06-18T11:43:10.753Z,416.25
2018-06-18T11:44:10.499Z,433.13
2018-06-18T11:45:10.433Z,438.75
2018-06-18T11:46:10.421Z,472.50
2018-06-18T11:47:10.518Z,517.50
2018-06-18T11:49:10.870Z,534.38
2018-06-18T11:51:10.377Z,433.13
2018-06-18T11:52:10.365Z,416.25
2018-06-18T11:53:10.360Z,427.50
2018-06-18T11:54:10.355Z,433.13
2018-06-18T11:55:10.388Z,399.38
2018-06-18T11:56:10.624Z,393.75
2018-06-18T11:57:10.351Z,360.00
2018-06-18T11:58:10.312Z,354.38
2018-06-18T11:59:10.355Z,337.50
2018-06-18T12:00:10.302Z,354.38
2018-06-18T12:01:10.481Z,365.63
2018-06-18T12:02:10.274Z,298.13
2018-06-18T12:03:10.562Z,275.63
2018-06-18T12:04:10.253Z,298.13
2018-06-18T12:06:10.309Z,405.00
2018-06-18T12:07:10.270Z,545.63
2018-06-18T12:08:10.336Z,528.75
2018-06-18T12:09:10.610Z,720.00
2018-06-18T12:10:10.341Z,736.88
2018-06-18T12:11:10.281Z,731.25
2018-06-18T12:12:10.301Z,826.88
2018-06-18T12:13:10.205Z,888.75
2018-06-18T12:14:10.160Z,838.13
2018-06-18T12:15:10.139Z,815.63
2018-06-18T12:16:10.426Z,810.00
2018-06-18T12:17:10.123Z,838.13
2018-06-18T12:18:10.112Z,883.13
2018-06-18T12:19:10.153Z,956.25
2018-06-18T12:20:10.549Z,1029.38
2018-06-18T12:21:10.090Z,1080.00
2018-06-18T12:22:10.406Z,1164.38
2018-06-18T12:23:10.062Z,1423.13
2018-06-18T12:24:10.063Z,1406.25
2018-06-18T12:25:10.094Z,1366.88
2018-06-18T12:26:10.050Z,1254.38
2018-06-18T12:27:10.329Z,978.75
2018-06-18T12:28:10.467Z,815.63
2018-06-18T12:29:10.040Z,607.50
2018-06-18T12:30:10.009Z,658.13
2018-06-18T12:31:10.049Z,573.75
2018-06-18T12:32:10.008Z,500.63
2018-06-18T12:34:10.277Z,585.00
2018-06-18T12:35:09.971Z,669.38
2018-06-18T12:36:09.966Z,517.50
2018-06-18T12:37:10.108Z,421.88
2018-06-18T12:38:10.205Z,405.00
2018-06-18T12:39:09.985Z,506.25
2018-06-18T12:40:10.245Z,540.00
2018-06-18T12:41:10.063Z,562.50
2018-06-18T12:42:09.931Z,686.25
2018-06-18T12:43:09.970Z,534.38
2018-06-18T12:44:09.990Z,500.63
2018-06-18T12:45:09.900Z,573.75
2018-06-18T12:46:10.255Z,658.13
2018-06-18T12:47:09.886Z,596.25
2018-06-18T12:48:09.881Z,590.63
2018-06-18T12:49:09.922Z,579.38
2018-06-18T12:50:09.873Z,500.63
2018-06-18T12:52:10.161Z,703.13
2018-06-18T12:53:09.847Z,1153.13
2018-06-18T12:54:09.843Z,2913.75
2018-06-18T12:55:09.968Z,1912.50
2018-06-18T12:56:09.809Z,1035.00
2018-06-18T12:57:09.809Z,961.88
2018-06-18T12:58:09.809Z,815.63
2018-06-18T12:59:10.094Z,736.88
2018-06-18T13:00:09.784Z,759.38
2018-06-18T13:01:09.822Z,669.38
2018-06-18T13:02:09.766Z,624.38
2018-06-18T13:03:09.765Z,646.88
2018-06-18T13:04:09.752Z,607.50
2018-06-18T13:05:09.746Z,405.00
2018-06-18T13:06:10.039Z,371.25
2018-06-18T13:07:09.790Z,433.13
2018-06-18T13:08:09.724Z,466.88
2018-06-18T13:09:09.727Z,495.00
2018-06-18T13:10:09.748Z,461.25
2018-06-18T13:11:09.704Z,450.00
2018-06-18T13:12:10.016Z,438.75
2018-06-18T13:13:09.742Z,438.75
2018-06-18T13:14:09.882Z,478.13
2018-06-18T13:15:09.673Z,506.25
2018-06-18T13:16:09.668Z,528.75
2018-06-18T13:18:09.949Z,343.13
2018-06-18T13:19:09.745Z,371.25
2018-06-18T13:20:09.701Z,388.13
2018-06-18T13:21:09.631Z,382.50
2018-06-18T13:22:09.684Z,466.88
2018-06-18T13:23:09.616Z,624.38
2018-06-18T13:24:09.898Z,708.75
2018-06-18T13:25:09.697Z,810.00
2018-06-18T13:26:09.612Z,2030.63
2018-06-18T13:28:09.576Z,1535.63
2018-06-18T13:29:09.550Z,2306.25
2018-06-18T13:30:09.714Z,1350.00
2018-06-18T13:31:09.899Z,1158.75
2018-06-18T13:32:09.835Z,1530.00
2018-06-18T13:33:09.526Z,624.38
2018-06-18T13:34:09.527Z,585.00
2018-06-18T13:35:09.574Z,708.75
2018-06-18T13:36:09.507Z,708.75
2018-06-18T13:37:09.916Z,686.25
2018-06-18T13:38:09.497Z,646.88
2018-06-18T13:39:09.498Z,686.25
2018-06-18T13:40:10.280Z,973.13
2018-06-18T13:41:09.577Z,528.75
2018-06-18T13:42:09.558Z,635.63
2018-06-18T13:43:22.583Z,500.63
2018-06-18T13:44:09.476Z,455.63
2018-06-18T13:45:09.531Z,393.75
2018-06-18T13:46:09.449Z,343.13
2018-06-18T13:47:09.457Z,405.00
2018-06-18T13:48:09.694Z,466.88
2018-06-18T13:49:09.468Z,455.63
2018-06-18T13:50:09.725Z,500.63
2018-06-18T13:51:09.718Z,506.25